sensor_id;sensor_type;location;lat;lon;timestamp;temperature;humidity
3416;DHT22;1721;51.238;9.562;2024-01-06T00:02:08;7.80;91.30
3416;DHT22;1721;51.238;9.562;2024-01-06T00:04:33;7.80;91.30
3416;DHT22;1721;51.238;9.562;2024-01-06T00:06:59;7.80;91.10
3416;DHT22;1721;51.238;9.562;2024-01-06T00:09:25;7.80;91.10
3416;DHT22;1721;51.238;9.562;2024-01-06T00:11:50;7.80;91.00
3416;DHT22;1721;51.238;9.562;2024-01-06T00:14:16;7.80;91.00
3416;DHT22;1721;51.238;9.562;2024-01-06T00:16:41;7.80;91.10
3416;DHT22;1721;51.238;9.562;2024-01-06T00:19:07;7.70;91.10
3416;DHT22;1721;51.238;9.562;2024-01-06T00:21:32;7.80;91.10
3416;DHT22;1721;51.238;9.562;2024-01-06T00:23:58;7.90;90.90
3416;DHT22;1721;51.238;9.562;2024-01-06T00:26:23;7.70;91.20
3416;DHT22;1721;51.238;9.562;2024-01-06T00:28:52;7.70;91.20
3416;DHT22;1721;51.238;9.562;2024-01-06T00:31:18;7.60;91.20
3416;DHT22;1721;51.238;9.562;2024-01-06T00:33:43;7.70;91.20
3416;DHT22;1721;51.238;9.562;2024-01-06T00:36:09;7.70;91.20
3416;DHT22;1721;51.238;9.562;2024-01-06T00:38:35;7.70;91.10
3416;DHT22;1721;51.238;9.562;2024-01-06T00:41:01;7.60;91.30
3416;DHT22;1721;51.238;9.562;2024-01-06T00:43:27;7.60;91.10
3416;DHT22;1721;51.238;9.562;2024-01-06T00:45:52;7.60;91.50
3416;DHT22;1721;51.238;9.562;2024-01-06T00:48:18;7.40;91.40
3416;DHT22;1721;51.238;9.562;2024-01-06T00:50:44;7.40;91.50
3416;DHT22;1721;51.238;9.562;2024-01-06T00:53:09;7.40;91.70
3416;DHT22;1721;51.238;9.562;2024-01-06T00:55:35;7.40;91.60
3416;DHT22;1721;51.238;9.562;2024-01-06T00:58:00;7.30;91.80
3416;DHT22;1721;51.238;9.562;2024-01-06T01:00:26;7.40;91.90
3416;DHT22;1721;51.238;9.562;2024-01-06T01:02:52;7.50;91.80
3416;DHT22;1721;51.238;9.562;2024-01-06T01:05:18;7.40;91.70
3416;DHT22;1721;51.238;9.562;2024-01-06T01:07:44;7.30;91.90
3416;DHT22;1721;51.238;9.562;2024-01-06T01:10:09;7.20;92.00
3416;DHT22;1721;51.238;9.562;2024-01-06T01:12:35;7.20;91.90
3416;DHT22;1721;51.238;9.562;2024-01-06T01:15:01;7.30;92.20
3416;DHT22;1721;51.238;9.562;2024-01-06T01:17:27;7.20;92.10
3416;DHT22;1721;51.238;9.562;2024-01-06T01:19:52;7.20;92.20
3416;DHT22;1721;51.238;9.562;2024-01-06T01:22:18;7.20;92.40
3416;DHT22;1721;51.238;9.562;2024-01-06T01:24:43;7.30;91.90
3416;DHT22;1721;51.238;9.562;2024-01-06T01:27:09;7.30;92.00
3416;DHT22;1721;51.238;9.562;2024-01-06T01:29:35;7.30;91.90
3416;DHT22;1721;51.238;9.562;2024-01-06T01:32:01;7.20;92.00
3416;DHT22;1721;51.238;9.562;2024-01-06T01:34:26;7.10;92.00
3416;DHT22;1721;51.238;9.562;2024-01-06T01:36:52;7.00;92.30
3416;DHT22;1721;51.238;9.562;2024-01-06T01:39:17;7.00;92.20
3416;DHT22;1721;51.238;9.562;2024-01-06T01:41:43;6.90;92.30
3416;DHT22;1721;51.238;9.562;2024-01-06T01:44:08;6.90;92.20
3416;DHT22;1721;51.238;9.562;2024-01-06T01:46:34;6.90;92.30
3416;DHT22;1721;51.238;9.562;2024-01-06T01:49:01;6.80;92.10
3416;DHT22;1721;51.238;9.562;2024-01-06T01:51:29;6.80;92.60
3416;DHT22;1721;51.238;9.562;2024-01-06T01:53:59;6.80;92.70
3416;DHT22;1721;51.238;9.562;2024-01-06T01:56:25;7.00;92.60
3416;DHT22;1721;51.238;9.562;2024-01-06T01:58:52;7.00;92.50
3416;DHT22;1721;51.238;9.562;2024-01-06T02:01:17;7.10;92.70
3416;DHT22;1721;51.238;9.562;2024-01-06T02:03:43;7.20;92.20
3416;DHT22;1721;51.238;9.562;2024-01-06T02:06:09;7.20;92.50
3416;DHT22;1721;51.238;9.562;2024-01-06T02:08:36;7.20;92.70
3416;DHT22;1721;51.238;9.562;2024-01-06T02:11:01;7.30;92.30
3416;DHT22;1721;51.238;9.562;2024-01-06T02:13:35;7.20;92.30
3416;DHT22;1721;51.238;9.562;2024-01-06T02:16:05;7.20;92.50
3416;DHT22;1721;51.238;9.562;2024-01-06T02:18:31;7.00;92.40
3416;DHT22;1721;51.238;9.562;2024-01-06T02:20:58;7.00;92.50
3416;DHT22;1721;51.238;9.562;2024-01-06T02:23:25;7.00;92.50
3416;DHT22;1721;51.238;9.562;2024-01-06T02:25:50;6.90;92.80
3416;DHT22;1721;51.238;9.562;2024-01-06T02:28:16;7.00;93.00
3416;DHT22;1721;51.238;9.562;2024-01-06T02:30:41;6.90;92.80
3416;DHT22;1721;51.238;9.562;2024-01-06T02:33:07;7.10;93.10
3416;DHT22;1721;51.238;9.562;2024-01-06T02:35:32;7.20;92.70
3416;DHT22;1721;51.238;9.562;2024-01-06T02:37:58;7.10;92.80
3416;DHT22;1721;51.238;9.562;2024-01-06T02:40:23;7.20;92.90
3416;DHT22;1721;51.238;9.562;2024-01-06T02:42:49;7.30;92.80
3416;DHT22;1721;51.238;9.562;2024-01-06T02:45:14;7.40;93.00
3416;DHT22;1721;51.238;9.562;2024-01-06T02:47:40;7.50;92.70
3416;DHT22;1721;51.238;9.562;2024-01-06T02:50:06;7.60;92.40
3416;DHT22;1721;51.238;9.562;2024-01-06T02:52:31;7.50;92.30
3416;DHT22;1721;51.238;9.562;2024-01-06T02:54:57;7.50;92.40
3416;DHT22;1721;51.238;9.562;2024-01-06T02:57:22;7.40;92.40
3416;DHT22;1721;51.238;9.562;2024-01-06T02:59:48;7.50;92.80
3416;DHT22;1721;51.238;9.562;2024-01-06T03:02:14;7.60;92.60
3416;DHT22;1721;51.238;9.562;2024-01-06T03:04:39;7.70;92.50
3416;DHT22;1721;51.238;9.562;2024-01-06T03:07:05;7.60;92.20
3416;DHT22;1721;51.238;9.562;2024-01-06T03:09:30;7.60;92.50
3416;DHT22;1721;51.238;9.562;2024-01-06T03:11:56;7.60;92.50
3416;DHT22;1721;51.238;9.562;2024-01-06T03:14:21;7.50;92.30
3416;DHT22;1721;51.238;9.562;2024-01-06T03:16:47;7.50;92.30
3416;DHT22;1721;51.238;9.562;2024-01-06T03:19:12;7.40;92.60
3416;DHT22;1721;51.238;9.562;2024-01-06T03:21:38;7.40;92.40
3416;DHT22;1721;51.238;9.562;2024-01-06T03:24:04;7.40;92.70
3416;DHT22;1721;51.238;9.562;2024-01-06T03:26:30;7.30;92.90
3416;DHT22;1721;51.238;9.562;2024-01-06T03:28:56;7.30;92.90
3416;DHT22;1721;51.238;9.562;2024-01-06T03:31:21;7.30;92.70
3416;DHT22;1721;51.238;9.562;2024-01-06T03:33:47;7.20;92.70
3416;DHT22;1721;51.238;9.562;2024-01-06T03:36:13;7.10;93.10
3416;DHT22;1721;51.238;9.562;2024-01-06T03:38:42;7.10;93.20
3416;DHT22;1721;51.238;9.562;2024-01-06T03:41:07;7.10;93.00
3416;DHT22;1721;51.238;9.562;2024-01-06T03:43:33;7.20;93.10
3416;DHT22;1721;51.238;9.562;2024-01-06T03:45:59;7.30;93.20
3416;DHT22;1721;51.238;9.562;2024-01-06T03:48:25;7.40;93.30
3416;DHT22;1721;51.238;9.562;2024-01-06T03:50:51;7.40;92.90
3416;DHT22;1721;51.238;9.562;2024-01-06T03:53:16;7.40;92.60
3416;DHT22;1721;51.238;9.562;2024-01-06T03:55:42;7.40;92.70
3416;DHT22;1721;51.238;9.562;2024-01-06T03:58:08;7.50;92.70
3416;DHT22;1721;51.238;9.562;2024-01-06T04:00:34;7.40;92.60
3416;DHT22;1721;51.238;9.562;2024-01-06T04:02:59;7.40;92.80
3416;DHT22;1721;51.238;9.562;2024-01-06T04:05:25;7.40;92.80
3416;DHT22;1721;51.238;9.562;2024-01-06T04:07:50;7.50;92.80
3416;DHT22;1721;51.238;9.562;2024-01-06T04:10:16;7.60;92.60
3416;DHT22;1721;51.238;9.562;2024-01-06T04:12:41;7.60;92.40
3416;DHT22;1721;51.238;9.562;2024-01-06T04:15:07;7.40;92.70
3416;DHT22;1721;51.238;9.562;2024-01-06T04:17:33;7.50;92.90
3416;DHT22;1721;51.238;9.562;2024-01-06T04:19:59;7.50;92.80
3416;DHT22;1721;51.238;9.562;2024-01-06T04:22:24;7.50;92.90
3416;DHT22;1721;51.238;9.562;2024-01-06T04:24:50;7.50;92.50
3416;DHT22;1721;51.238;9.562;2024-01-06T04:27:15;7.60;92.70
3416;DHT22;1721;51.238;9.562;2024-01-06T04:29:41;7.70;92.60
3416;DHT22;1721;51.238;9.562;2024-01-06T04:32:06;7.80;92.50
3416;DHT22;1721;51.238;9.562;2024-01-06T04:34:33;7.80;92.50
3416;DHT22;1721;51.238;9.562;2024-01-06T04:36:58;7.80;92.50
3416;DHT22;1721;51.238;9.562;2024-01-06T04:39:24;7.90;92.40
3416;DHT22;1721;51.238;9.562;2024-01-06T04:41:49;7.60;92.50
3416;DHT22;1721;51.238;9.562;2024-01-06T04:44:15;7.60;92.30
3416;DHT22;1721;51.238;9.562;2024-01-06T04:46:41;7.40;92.70
3416;DHT22;1721;51.238;9.562;2024-01-06T04:49:06;7.50;93.00
3416;DHT22;1721;51.238;9.562;2024-01-06T04:51:32;7.70;92.80
3416;DHT22;1721;51.238;9.562;2024-01-06T04:53:57;7.80;92.60
3416;DHT22;1721;51.238;9.562;2024-01-06T04:56:23;7.70;92.40
3416;DHT22;1721;51.238;9.562;2024-01-06T04:58:48;7.70;92.30
3416;DHT22;1721;51.238;9.562;2024-01-06T05:01:14;7.60;92.40
3416;DHT22;1721;51.238;9.562;2024-01-06T05:03:39;7.60;92.50
3416;DHT22;1721;51.238;9.562;2024-01-06T05:06:05;7.50;92.40
3416;DHT22;1721;51.238;9.562;2024-01-06T05:08:31;7.60;92.80
3416;DHT22;1721;51.238;9.562;2024-01-06T05:10:56;7.50;92.80
3416;DHT22;1721;51.238;9.562;2024-01-06T05:13:22;7.50;92.60
3416;DHT22;1721;51.238;9.562;2024-01-06T05:15:48;7.40;92.60
3416;DHT22;1721;51.238;9.562;2024-01-06T05:18:13;7.50;92.90
3416;DHT22;1721;51.238;9.562;2024-01-06T05:20:39;7.40;92.70
3416;DHT22;1721;51.238;9.562;2024-01-06T05:23:06;7.50;93.00
3416;DHT22;1721;51.238;9.562;2024-01-06T05:25:32;7.40;92.80
3416;DHT22;1721;51.238;9.562;2024-01-06T05:27:57;7.50;92.80
3416;DHT22;1721;51.238;9.562;2024-01-06T05:30:23;7.50;92.70
3416;DHT22;1721;51.238;9.562;2024-01-06T05:32:48;7.50;92.80
3416;DHT22;1721;51.238;9.562;2024-01-06T05:35:16;7.40;92.70
3416;DHT22;1721;51.238;9.562;2024-01-06T05:37:41;7.50;92.90
3416;DHT22;1721;51.238;9.562;2024-01-06T05:40:07;7.50;92.80
3416;DHT22;1721;51.238;9.562;2024-01-06T05:42:33;7.50;92.50
3416;DHT22;1721;51.238;9.562;2024-01-06T05:44:58;7.60;92.70
3416;DHT22;1721;51.238;9.562;2024-01-06T05:47:24;7.60;92.70
3416;DHT22;1721;51.238;9.562;2024-01-06T05:49:49;7.60;92.60
3416;DHT22;1721;51.238;9.562;2024-01-06T05:52:15;7.70;92.70
3416;DHT22;1721;51.238;9.562;2024-01-06T05:54:41;7.50;92.40
3416;DHT22;1721;51.238;9.562;2024-01-06T05:57:10;7.50;92.60
3416;DHT22;1721;51.238;9.562;2024-01-06T05:59:35;7.40;93.00
3416;DHT22;1721;51.238;9.562;2024-01-06T06:02:01;7.60;92.90
3416;DHT22;1721;51.238;9.562;2024-01-06T06:04:27;7.60;92.50
3416;DHT22;1721;51.238;9.562;2024-01-06T06:06:52;7.60;92.60
3416;DHT22;1721;51.238;9.562;2024-01-06T06:09:18;7.60;92.70
3416;DHT22;1721;51.238;9.562;2024-01-06T06:11:43;7.40;92.60
3416;DHT22;1721;51.238;9.562;2024-01-06T06:14:10;7.40;93.00
3416;DHT22;1721;51.238;9.562;2024-01-06T06:16:35;7.40;92.90
3416;DHT22;1721;51.238;9.562;2024-01-06T06:19:01;7.50;92.90
3416;DHT22;1721;51.238;9.562;2024-01-06T06:21:27;7.70;93.00
3416;DHT22;1721;51.238;9.562;2024-01-06T06:23:53;7.70;92.40
3416;DHT22;1721;51.238;9.562;2024-01-06T06:26:18;7.50;92.80
3416;DHT22;1721;51.238;9.562;2024-01-06T06:28:44;7.40;92.90
3416;DHT22;1721;51.238;9.562;2024-01-06T06:31:09;7.30;93.20
3416;DHT22;1721;51.238;9.562;2024-01-06T06:33:35;7.40;93.00
3416;DHT22;1721;51.238;9.562;2024-01-06T06:36:01;7.60;93.00
3416;DHT22;1721;51.238;9.562;2024-01-06T06:38:27;7.60;92.50
3416;DHT22;1721;51.238;9.562;2024-01-06T06:40:53;7.60;92.80
3416;DHT22;1721;51.238;9.562;2024-01-06T06:43:18;7.50;92.80
3416;DHT22;1721;51.238;9.562;2024-01-06T06:45:43;7.60;92.90
3416;DHT22;1721;51.238;9.562;2024-01-06T06:48:09;7.60;92.70
3416;DHT22;1721;51.238;9.562;2024-01-06T06:50:34;7.60;92.60
3416;DHT22;1721;51.238;9.562;2024-01-06T06:53:00;7.60;92.70
3416;DHT22;1721;51.238;9.562;2024-01-06T06:55:28;7.50;92.90
3416;DHT22;1721;51.238;9.562;2024-01-06T06:57:54;7.50;92.80
3416;DHT22;1721;51.238;9.562;2024-01-06T07:00:20;7.40;92.90
3416;DHT22;1721;51.238;9.562;2024-01-06T07:02:45;7.50;93.20
3416;DHT22;1721;51.238;9.562;2024-01-06T07:05:11;7.60;92.90
3416;DHT22;1721;51.238;9.562;2024-01-06T07:07:36;7.50;93.00
3416;DHT22;1721;51.238;9.562;2024-01-06T07:10:04;7.60;93.10
3416;DHT22;1721;51.238;9.562;2024-01-06T07:12:30;7.70;93.10
3416;DHT22;1721;51.238;9.562;2024-01-06T07:14:56;7.80;92.80
3416;DHT22;1721;51.238;9.562;2024-01-06T07:17:22;7.70;92.80
3416;DHT22;1721;51.238;9.562;2024-01-06T07:19:47;7.60;92.60
3416;DHT22;1721;51.238;9.562;2024-01-06T07:22:14;7.50;93.00
3416;DHT22;1721;51.238;9.562;2024-01-06T07:24:41;7.30;93.10
3416;DHT22;1721;51.238;9.562;2024-01-06T07:27:07;7.20;93.20
3416;DHT22;1721;51.238;9.562;2024-01-06T07:29:32;7.30;93.40
3416;DHT22;1721;51.238;9.562;2024-01-06T07:31:58;7.40;93.30
3416;DHT22;1721;51.238;9.562;2024-01-06T07:34:23;7.50;93.00
3416;DHT22;1721;51.238;9.562;2024-01-06T07:36:50;7.60;92.90
3416;DHT22;1721;51.238;9.562;2024-01-06T07:39:16;7.70;93.10
3416;DHT22;1721;51.238;9.562;2024-01-06T07:41:42;7.70;93.00
3416;DHT22;1721;51.238;9.562;2024-01-06T07:44:08;7.60;92.80
3416;DHT22;1721;51.238;9.562;2024-01-06T07:46:33;7.60;93.00
3416;DHT22;1721;51.238;9.562;2024-01-06T07:49:00;7.60;93.10
3416;DHT22;1721;51.238;9.562;2024-01-06T07:51:26;7.70;93.00
3416;DHT22;1721;51.238;9.562;2024-01-06T07:53:51;7.70;92.80
3416;DHT22;1721;51.238;9.562;2024-01-06T07:56:17;7.70;93.00
3416;DHT22;1721;51.238;9.562;2024-01-06T07:58:42;7.70;92.80
3416;DHT22;1721;51.238;9.562;2024-01-06T08:01:08;7.80;92.90
3416;DHT22;1721;51.238;9.562;2024-01-06T08:03:34;7.80;92.80
3416;DHT22;1721;51.238;9.562;2024-01-06T08:05:59;7.90;92.90
3416;DHT22;1721;51.238;9.562;2024-01-06T08:08:26;8.00;92.90
3416;DHT22;1721;51.238;9.562;2024-01-06T08:10:52;8.00;92.70
3416;DHT22;1721;51.238;9.562;2024-01-06T08:13:17;8.00;92.40
3416;DHT22;1721;51.238;9.562;2024-01-06T08:15:43;8.00;92.60
3416;DHT22;1721;51.238;9.562;2024-01-06T08:18:08;8.10;92.70
3416;DHT22;1721;51.238;9.562;2024-01-06T08:20:34;8.20;92.40
3416;DHT22;1721;51.238;9.562;2024-01-06T08:23:00;8.20;92.40
3416;DHT22;1721;51.238;9.562;2024-01-06T08:25:25;8.20;92.40
3416;DHT22;1721;51.238;9.562;2024-01-06T08:27:50;7.90;92.30
3416;DHT22;1721;51.238;9.562;2024-01-06T08:30:16;8.00;92.80
3416;DHT22;1721;51.238;9.562;2024-01-06T08:32:42;8.10;92.80
3416;DHT22;1721;51.238;9.562;2024-01-06T08:35:07;8.20;92.50
3416;DHT22;1721;51.238;9.562;2024-01-06T08:37:33;8.00;92.30
3416;DHT22;1721;51.238;9.562;2024-01-06T08:39:59;8.00;92.40
3416;DHT22;1721;51.238;9.562;2024-01-06T08:42:24;7.90;92.80
3416;DHT22;1721;51.238;9.562;2024-01-06T08:44:51;7.90;93.00
3416;DHT22;1721;51.238;9.562;2024-01-06T08:47:17;7.90;92.50
3416;DHT22;1721;51.238;9.562;2024-01-06T08:49:42;8.00;92.60
3416;DHT22;1721;51.238;9.562;2024-01-06T08:52:08;8.10;93.00
3416;DHT22;1721;51.238;9.562;2024-01-06T08:54:34;8.20;92.50
3416;DHT22;1721;51.238;9.562;2024-01-06T08:57:00;8.10;92.10
3416;DHT22;1721;51.238;9.562;2024-01-06T08:59:25;8.10;92.60
3416;DHT22;1721;51.238;9.562;2024-01-06T09:01:51;8.20;92.30
3416;DHT22;1721;51.238;9.562;2024-01-06T09:04:18;8.10;92.10
3416;DHT22;1721;51.238;9.562;2024-01-06T09:06:44;8.10;92.60
3416;DHT22;1721;51.238;9.562;2024-01-06T09:09:11;8.20;92.20
3416;DHT22;1721;51.238;9.562;2024-01-06T09:11:37;8.10;92.50
3416;DHT22;1721;51.238;9.562;2024-01-06T09:14:03;8.10;92.70
3416;DHT22;1721;51.238;9.562;2024-01-06T09:16:28;8.10;92.50
3416;DHT22;1721;51.238;9.562;2024-01-06T09:18:54;8.20;92.90
3416;DHT22;1721;51.238;9.562;2024-01-06T09:21:20;8.40;92.60
3416;DHT22;1721;51.238;9.562;2024-01-06T09:23:45;8.50;92.20
3416;DHT22;1721;51.238;9.562;2024-01-06T09:26:11;8.30;92.20
3416;DHT22;1721;51.238;9.562;2024-01-06T09:28:37;8.30;92.30
3416;DHT22;1721;51.238;9.562;2024-01-06T09:31:02;8.40;92.20
3416;DHT22;1721;51.238;9.562;2024-01-06T09:33:30;8.30;92.20
3416;DHT22;1721;51.238;9.562;2024-01-06T09:35:55;8.30;92.00
3416;DHT22;1721;51.238;9.562;2024-01-06T09:38:21;8.20;92.30
3416;DHT22;1721;51.238;9.562;2024-01-06T09:40:48;8.30;92.40
3416;DHT22;1721;51.238;9.562;2024-01-06T09:43:14;8.30;92.60
3416;DHT22;1721;51.238;9.562;2024-01-06T09:45:40;8.50;92.30
3416;DHT22;1721;51.238;9.562;2024-01-06T09:48:12;8.50;92.10
3416;DHT22;1721;51.238;9.562;2024-01-06T09:50:42;8.60;92.30
3416;DHT22;1721;51.238;9.562;2024-01-06T09:53:11;8.70;92.30
3416;DHT22;1721;51.238;9.562;2024-01-06T09:55:37;8.60;91.80
3416;DHT22;1721;51.238;9.562;2024-01-06T09:58:02;8.60;92.10
3416;DHT22;1721;51.238;9.562;2024-01-06T10:00:28;8.60;92.30
3416;DHT22;1721;51.238;9.562;2024-01-06T10:02:54;8.40;92.20
3416;DHT22;1721;51.238;9.562;2024-01-06T10:05:21;8.30;92.20
3416;DHT22;1721;51.238;9.562;2024-01-06T10:07:47;8.30;92.70
3416;DHT22;1721;51.238;9.562;2024-01-06T10:10:14;8.30;92.50
3416;DHT22;1721;51.238;9.562;2024-01-06T10:12:41;8.30;92.60
3416;DHT22;1721;51.238;9.562;2024-01-06T10:15:08;8.20;92.40
3416;DHT22;1721;51.238;9.562;2024-01-06T10:17:37;8.20;92.60
3416;DHT22;1721;51.238;9.562;2024-01-06T10:20:07;8.30;92.60
3416;DHT22;1721;51.238;9.562;2024-01-06T10:22:38;8.30;92.80
3416;DHT22;1721;51.238;9.562;2024-01-06T10:25:08;8.40;92.70
3416;DHT22;1721;51.238;9.562;2024-01-06T10:27:38;8.60;92.40
3416;DHT22;1721;51.238;9.562;2024-01-06T10:30:08;8.60;92.00
3416;DHT22;1721;51.238;9.562;2024-01-06T10:32:34;8.70;92.30
3416;DHT22;1721;51.238;9.562;2024-01-06T10:35:02;8.80;92.20
3416;DHT22;1721;51.238;9.562;2024-01-06T10:37:29;8.70;92.00
3416;DHT22;1721;51.238;9.562;2024-01-06T10:40:12;8.80;92.20
3416;DHT22;1721;51.238;9.562;2024-01-06T10:42:39;8.90;92.10
3416;DHT22;1721;51.238;9.562;2024-01-06T10:45:09;8.90;91.90
3416;DHT22;1721;51.238;9.562;2024-01-06T10:47:36;8.90;92.00
3416;DHT22;1721;51.238;9.562;2024-01-06T10:50:02;9.00;91.70
3416;DHT22;1721;51.238;9.562;2024-01-06T10:52:29;8.80;91.50
3416;DHT22;1721;51.238;9.562;2024-01-06T10:54:55;8.90;92.10
3416;DHT22;1721;51.238;9.562;2024-01-06T10:57:22;8.80;91.90
3416;DHT22;1721;51.238;9.562;2024-01-06T10:59:50;8.80;92.10
3416;DHT22;1721;51.238;9.562;2024-01-06T11:02:16;8.80;91.90
3416;DHT22;1721;51.238;9.562;2024-01-06T11:04:46;8.80;91.90
3416;DHT22;1721;51.238;9.562;2024-01-06T11:07:13;8.90;92.00
3416;DHT22;1721;51.238;9.562;2024-01-06T11:09:44;8.80;92.20
3416;DHT22;1721;51.238;9.562;2024-01-06T11:12:12;8.90;91.80
3416;DHT22;1721;51.238;9.562;2024-01-06T11:14:38;8.80;91.90
3416;DHT22;1721;51.238;9.562;2024-01-06T11:17:03;8.90;92.10
3416;DHT22;1721;51.238;9.562;2024-01-06T11:22:25;9.10;91.90
3416;DHT22;1721;51.238;9.562;2024-01-06T11:24:56;9.20;92.00
3416;DHT22;1721;51.238;9.562;2024-01-06T11:27:24;9.30;91.90
3416;DHT22;1721;51.238;9.562;2024-01-06T11:29:57;9.40;91.70
3416;DHT22;1721;51.238;9.562;2024-01-06T11:32:31;9.50;91.80
3416;DHT22;1721;51.238;9.562;2024-01-06T11:35:12;9.60;91.70
3416;DHT22;1721;51.238;9.562;2024-01-06T11:42:57;9.60;91.80
3416;DHT22;1721;51.238;9.562;2024-01-06T11:45:24;9.70;91.70
3416;DHT22;1721;51.238;9.562;2024-01-06T11:47:57;9.60;91.50
3416;DHT22;1721;51.238;9.562;2024-01-06T11:50:28;9.70;91.40
3416;DHT22;1721;51.238;9.562;2024-01-06T11:52:54;9.80;91.20
3416;DHT22;1721;51.238;9.562;2024-01-06T11:55:21;9.80;91.30
3416;DHT22;1721;51.238;9.562;2024-01-06T11:57:47;9.90;91.20
3416;DHT22;1721;51.238;9.562;2024-01-06T12:00:15;9.90;91.10
3416;DHT22;1721;51.238;9.562;2024-01-06T12:02:41;9.90;91.10
3416;DHT22;1721;51.238;9.562;2024-01-06T12:05:12;9.90;91.10
3416;DHT22;1721;51.238;9.562;2024-01-06T12:07:40;9.90;91.00
3416;DHT22;1721;51.238;9.562;2024-01-06T12:10:08;9.90;91.10
3416;DHT22;1721;51.238;9.562;2024-01-06T12:12:33;9.90;91.00
3416;DHT22;1721;51.238;9.562;2024-01-06T12:14:59;9.70;90.70
3416;DHT22;1721;51.238;9.562;2024-01-06T12:17:29;9.60;91.20
3416;DHT22;1721;51.238;9.562;2024-01-06T12:19:55;9.70;91.30
3416;DHT22;1721;51.238;9.562;2024-01-06T12:22:21;9.70;91.20
3416;DHT22;1721;51.238;9.562;2024-01-06T12:24:49;9.70;91.20
3416;DHT22;1721;51.238;9.562;2024-01-06T12:27:16;9.70;91.40
3416;DHT22;1721;51.238;9.562;2024-01-06T12:29:42;9.70;91.40
3416;DHT22;1721;51.238;9.562;2024-01-06T12:32:09;9.80;91.40
3416;DHT22;1721;51.238;9.562;2024-01-06T12:34:35;9.80;91.50
3416;DHT22;1721;51.238;9.562;2024-01-06T12:37:05;9.70;91.40
3416;DHT22;1721;51.238;9.562;2024-01-06T12:39:31;9.80;91.50
3416;DHT22;1721;51.238;9.562;2024-01-06T12:41:57;9.70;91.60
3416;DHT22;1721;51.238;9.562;2024-01-06T12:44:25;9.60;91.80
3416;DHT22;1721;51.238;9.562;2024-01-06T12:46:51;9.60;92.00
3416;DHT22;1721;51.238;9.562;2024-01-06T12:49:16;9.70;92.00
3416;DHT22;1721;51.238;9.562;2024-01-06T12:51:42;9.70;92.00
3416;DHT22;1721;51.238;9.562;2024-01-06T12:54:07;9.80;92.00
3416;DHT22;1721;51.238;9.562;2024-01-06T12:56:33;9.80;92.00
3416;DHT22;1721;51.238;9.562;2024-01-06T12:58:58;9.70;92.10
3416;DHT22;1721;51.238;9.562;2024-01-06T13:01:25;9.70;92.30
3416;DHT22;1721;51.238;9.562;2024-01-06T13:03:50;9.70;92.40
3416;DHT22;1721;51.238;9.562;2024-01-06T13:06:16;9.70;92.40
3416;DHT22;1721;51.238;9.562;2024-01-06T13:08:44;9.70;92.20
3416;DHT22;1721;51.238;9.562;2024-01-06T13:11:10;9.60;92.20
3416;DHT22;1721;51.238;9.562;2024-01-06T13:13:35;9.40;92.60
3416;DHT22;1721;51.238;9.562;2024-01-06T13:16:01;9.50;92.70
3416;DHT22;1721;51.238;9.562;2024-01-06T13:18:30;9.50;92.70
3416;DHT22;1721;51.238;9.562;2024-01-06T13:20:56;9.60;92.50
3416;DHT22;1721;51.238;9.562;2024-01-06T13:23:21;9.60;92.50
3416;DHT22;1721;51.238;9.562;2024-01-06T13:25:47;9.60;92.40
3416;DHT22;1721;51.238;9.562;2024-01-06T13:28:12;9.50;92.10
3416;DHT22;1721;51.238;9.562;2024-01-06T13:30:38;9.40;92.50
3416;DHT22;1721;51.238;9.562;2024-01-06T13:33:05;9.30;92.60
3416;DHT22;1721;51.238;9.562;2024-01-06T13:35:31;9.40;92.60
3416;DHT22;1721;51.238;9.562;2024-01-06T13:37:57;9.40;92.50
3416;DHT22;1721;51.238;9.562;2024-01-06T13:40:22;9.40;92.50
3416;DHT22;1721;51.238;9.562;2024-01-06T13:42:49;9.40;92.40
3416;DHT22;1721;51.238;9.562;2024-01-06T13:45:16;9.40;92.60
3416;DHT22;1721;51.238;9.562;2024-01-06T13:47:41;9.50;92.30
3416;DHT22;1721;51.238;9.562;2024-01-06T13:50:11;9.40;92.10
3416;DHT22;1721;51.238;9.562;2024-01-06T13:52:37;9.40;92.40
3416;DHT22;1721;51.238;9.562;2024-01-06T13:55:02;9.30;92.40
3416;DHT22;1721;51.238;9.562;2024-01-06T13:57:28;9.20;92.60
3416;DHT22;1721;51.238;9.562;2024-01-06T13:59:54;9.10;92.30
3416;DHT22;1721;51.238;9.562;2024-01-06T14:02:19;9.10;92.50
3416;DHT22;1721;51.238;9.562;2024-01-06T14:04:45;9.00;92.60
3416;DHT22;1721;51.238;9.562;2024-01-06T14:07:10;8.90;92.70
3416;DHT22;1721;51.238;9.562;2024-01-06T14:09:36;9.00;92.80
3416;DHT22;1721;51.238;9.562;2024-01-06T14:12:02;9.10;92.50
3416;DHT22;1721;51.238;9.562;2024-01-06T14:14:31;9.00;92.50
3416;DHT22;1721;51.238;9.562;2024-01-06T14:16:57;8.70;92.60
3416;DHT22;1721;51.238;9.562;2024-01-06T14:19:24;8.70;92.60
3416;DHT22;1721;51.238;9.562;2024-01-06T14:21:49;8.50;92.80
3416;DHT22;1721;51.238;9.562;2024-01-06T14:24:17;8.40;92.70
3416;DHT22;1721;51.238;9.562;2024-01-06T14:26:53;8.30;92.90
3416;DHT22;1721;51.238;9.562;2024-01-06T14:29:20;8.30;92.70
3416;DHT22;1721;51.238;9.562;2024-01-06T14:31:46;8.30;93.00
3416;DHT22;1721;51.238;9.562;2024-01-06T14:34:12;8.30;92.90
3416;DHT22;1721;51.238;9.562;2024-01-06T14:36:37;8.30;92.80
3416;DHT22;1721;51.238;9.562;2024-01-06T14:39:03;8.20;92.90
3416;DHT22;1721;51.238;9.562;2024-01-06T14:41:31;8.00;93.00
3416;DHT22;1721;51.238;9.562;2024-01-06T14:43:57;8.00;93.30
3416;DHT22;1721;51.238;9.562;2024-01-06T14:46:24;8.00;93.40
3416;DHT22;1721;51.238;9.562;2024-01-06T14:48:49;7.90;93.60
3416;DHT22;1721;51.238;9.562;2024-01-06T14:51:15;7.90;93.60
3416;DHT22;1721;51.238;9.562;2024-01-06T14:53:41;8.00;93.60
3416;DHT22;1721;51.238;9.562;2024-01-06T14:56:07;8.00;93.30
3416;DHT22;1721;51.238;9.562;2024-01-06T14:58:32;8.00;93.50
3416;DHT22;1721;51.238;9.562;2024-01-06T15:00:58;7.90;93.50
3416;DHT22;1721;51.238;9.562;2024-01-06T15:03:25;7.90;93.80
3416;DHT22;1721;51.238;9.562;2024-01-06T15:05:50;7.90;93.80
3416;DHT22;1721;51.238;9.562;2024-01-06T15:08:16;8.00;93.60
3416;DHT22;1721;51.238;9.562;2024-01-06T15:10:41;7.90;93.60
3416;DHT22;1721;51.238;9.562;2024-01-06T15:13:07;7.90;93.50
3416;DHT22;1721;51.238;9.562;2024-01-06T15:15:32;7.80;93.60
3416;DHT22;1721;51.238;9.562;2024-01-06T15:17:58;7.80;93.60
3416;DHT22;1721;51.238;9.562;2024-01-06T15:20:24;7.80;93.90
3416;DHT22;1721;51.238;9.562;2024-01-06T15:22:49;7.80;93.80
3416;DHT22;1721;51.238;9.562;2024-01-06T15:25:15;7.90;93.80
3416;DHT22;1721;51.238;9.562;2024-01-06T15:27:43;7.90;93.70
3416;DHT22;1721;51.238;9.562;2024-01-06T15:30:08;7.80;93.80
3416;DHT22;1721;51.238;9.562;2024-01-06T15:32:37;7.70;94.10
3416;DHT22;1721;51.238;9.562;2024-01-06T15:35:04;7.70;94.10
3416;DHT22;1721;51.238;9.562;2024-01-06T15:37:31;7.70;94.00
3416;DHT22;1721;51.238;9.562;2024-01-06T15:39:57;7.60;93.90
3416;DHT22;1721;51.238;9.562;2024-01-06T15:42:23;7.60;94.20
3416;DHT22;1721;51.238;9.562;2024-01-06T15:44:48;7.60;94.00
3416;DHT22;1721;51.238;9.562;2024-01-06T15:47:14;7.60;94.20
3416;DHT22;1721;51.238;9.562;2024-01-06T15:49:39;7.50;94.40
3416;DHT22;1721;51.238;9.562;2024-01-06T15:52:05;7.50;94.50
3416;DHT22;1721;51.238;9.562;2024-01-06T15:54:33;7.50;94.60
3416;DHT22;1721;51.238;9.562;2024-01-06T15:56:59;7.50;94.60
3416;DHT22;1721;51.238;9.562;2024-01-06T15:59:24;7.50;94.60
3416;DHT22;1721;51.238;9.562;2024-01-06T16:01:50;7.60;94.70
3416;DHT22;1721;51.238;9.562;2024-01-06T16:04:15;7.70;94.40
3416;DHT22;1721;51.238;9.562;2024-01-06T16:06:41;7.60;94.50
3416;DHT22;1721;51.238;9.562;2024-01-06T16:09:06;7.70;94.30
3416;DHT22;1721;51.238;9.562;2024-01-06T16:11:37;7.80;94.20
3416;DHT22;1721;51.238;9.562;2024-01-06T16:14:03;7.60;94.30
3416;DHT22;1721;51.238;9.562;2024-01-06T16:16:28;7.70;94.30
3416;DHT22;1721;51.238;9.562;2024-01-06T16:18:54;7.60;94.10